createdAt,value
2022-10-18T00:00:54.315Z,8.95
2022-10-18T00:03:21.541Z,8.91
2022-10-18T00:05:49.094Z,8.91
2022-10-18T00:08:17.201Z,8.91
2022-10-18T00:10:44.496Z,8.89
2022-10-18T00:13:11.353Z,8.88
2022-10-18T00:15:38.268Z,8.81
2022-10-18T00:18:05.398Z,8.80
2022-10-18T00:20:32.253Z,8.78
2022-10-18T00:22:59.142Z,8.76
2022-10-18T00:25:26.252Z,8.71
2022-10-18T00:27:53.087Z,8.71
2022-10-18T00:30:19.950Z,8.74
2022-10-18T00:32:47.077Z,8.71
2022-10-18T00:35:13.974Z,8.71
2022-10-18T00:37:40.840Z,8.68
2022-10-18T00:40:08.397Z,8.64
2022-10-18T00:42:36.421Z,8.58
2022-10-18T00:45:16.418Z,8.55
2022-10-18T00:47:46.127Z,8.48
2022-10-18T00:50:13.522Z,8.44
2022-10-18T00:52:50.190Z,8.49
2022-10-18T00:55:17.753Z,8.49
2022-10-18T00:57:46.384Z,8.47
2022-10-18T01:00:14.013Z,8.45
2022-10-18T01:02:42.358Z,8.48
2022-10-18T01:05:11.633Z,8.43
2022-10-18T01:08:01.717Z,8.45
2022-10-18T01:10:58.122Z,8.44
2022-10-18T01:14:01.239Z,8.44
2022-10-18T01:16:39.031Z,8.51
2022-10-18T01:19:30.917Z,8.54
2022-10-18T01:22:04.453Z,8.51
2022-10-18T01:24:55.383Z,8.48
2022-10-18T01:27:36.268Z,8.53
2022-10-18T01:30:42.098Z,8.55
2022-10-18T01:33:28.090Z,8.49
2022-10-18T01:36:04.018Z,8.45
2022-10-18T01:38:32.246Z,8.41
2022-10-18T01:41:00.586Z,8.40
2022-10-18T01:43:28.737Z,8.40
2022-10-18T01:45:56.774Z,8.32
2022-10-18T01:48:23.948Z,8.31
2022-10-18T01:50:52.325Z,8.23
2022-10-18T01:53:30.282Z,8.16
2022-10-18T01:56:10.682Z,8.12
2022-10-18T01:58:45.116Z,8.14
2022-10-18T02:01:20.059Z,8.11
2022-10-18T02:03:48.014Z,8.06
2022-10-18T02:06:22.095Z,8.08
2022-10-18T02:08:57.597Z,8.11
2022-10-18T02:11:25.018Z,8.13
2022-10-18T02:13:55.070Z,8.16
2022-10-18T02:16:26.134Z,8.16
2022-10-18T02:19:20.828Z,8.20
2022-10-18T02:21:48.528Z,8.19
2022-10-18T02:24:19.469Z,8.15
2022-10-18T02:26:49.119Z,8.07
2022-10-18T02:29:19.338Z,8.02
2022-10-18T02:31:50.359Z,8.04
2022-10-18T02:34:27.779Z,8.07
2022-10-18T02:36:58.517Z,8.11
2022-10-18T02:39:30.415Z,8.15
2022-10-18T02:41:57.801Z,8.08
2022-10-18T02:44:24.720Z,8.06
2022-10-18T02:46:52.114Z,8.04
2022-10-18T02:49:18.966Z,7.96
2022-10-18T02:51:48.598Z,7.92
2022-10-18T02:54:18.798Z,7.96
2022-10-18T02:56:48.787Z,8.04
2022-10-18T02:59:15.897Z,8.07
2022-10-18T03:01:43.989Z,8.11
2022-10-18T03:04:11.007Z,8.01
2022-10-18T03:06:38.114Z,7.98
2022-10-18T03:09:05.919Z,7.98
2022-10-18T03:11:32.862Z,7.94
2022-10-18T03:13:59.987Z,7.90
2022-10-18T03:16:27.416Z,7.88
2022-10-18T03:18:54.249Z,7.85
2022-10-18T03:21:21.382Z,7.78
2022-10-18T03:23:48.226Z,7.78
2022-10-18T03:26:15.070Z,7.75
2022-10-18T03:28:42.216Z,7.77
2022-10-18T03:31:09.093Z,7.76
2022-10-18T03:33:35.968Z,7.74
2022-10-18T03:36:03.198Z,7.75
2022-10-18T03:38:30.180Z,7.73
2022-10-18T03:40:57.099Z,7.72
2022-10-18T03:43:24.231Z,7.65
2022-10-18T03:45:51.407Z,7.65
2022-10-18T03:48:18.278Z,7.60
2022-10-18T03:50:45.489Z,7.60
2022-10-18T03:53:12.399Z,7.60
2022-10-18T03:55:39.380Z,7.50
2022-10-18T03:58:06.696Z,7.52
2022-10-18T04:00:33.647Z,7.49
2022-10-18T04:03:00.770Z,7.41
2022-10-18T04:05:30.634Z,7.46
2022-10-18T04:07:57.923Z,7.42
2022-10-18T04:10:25.557Z,7.34
2022-10-18T04:12:52.435Z,7.38
2022-10-18T04:15:19.380Z,7.35
2022-10-18T04:17:46.755Z,7.32
2022-10-18T04:20:13.764Z,7.33
2022-10-18T04:22:40.704Z,7.29
2022-10-18T04:25:07.994Z,7.36
2022-10-18T04:27:35.619Z,7.35
2022-10-18T04:30:02.634Z,7.29
2022-10-18T04:32:29.794Z,7.37
2022-10-18T04:34:56.663Z,7.50
2022-10-18T04:37:23.567Z,7.54
2022-10-18T04:39:53.510Z,7.57
2022-10-18T04:42:21.650Z,7.54
2022-10-18T04:44:48.572Z,7.50
2022-10-18T04:47:16.373Z,7.49
2022-10-18T04:49:43.274Z,7.56
2022-10-18T04:52:10.198Z,7.51
2022-10-18T04:54:37.385Z,7.57
2022-10-18T04:57:04.291Z,7.60
2022-10-18T04:59:31.140Z,7.60
2022-10-18T05:01:58.331Z,7.67
2022-10-18T05:04:25.394Z,7.72
2022-10-18T05:06:52.260Z,7.66
2022-10-18T05:09:19.475Z,7.68
2022-10-18T05:11:46.321Z,7.77
2022-10-18T05:14:15.480Z,7.72
2022-10-18T05:16:42.587Z,7.79
2022-10-18T05:19:09.875Z,7.79
2022-10-18T05:21:36.724Z,7.96
2022-10-18T05:24:04.162Z,8.09
2022-10-18T05:26:31.046Z,8.07
2022-10-18T05:28:58.002Z,8.02
2022-10-18T05:31:25.179Z,7.96
2022-10-18T05:33:52.039Z,7.92
2022-10-18T05:36:18.928Z,7.84
2022-10-18T05:38:47.920Z,7.79
2022-10-18T05:41:14.830Z,7.76
2022-10-18T05:43:41.694Z,7.84
2022-10-18T05:46:13.646Z,7.90
2022-10-18T05:48:43.979Z,7.97
2022-10-18T05:51:11.559Z,8.04
2022-10-18T05:53:38.564Z,8.13
2022-10-18T05:56:06.365Z,8.22
2022-10-18T05:58:34.054Z,8.35
2022-10-18T06:01:01.996Z,8.50
2022-10-18T06:03:30.864Z,8.63
2022-10-18T06:06:07.249Z,8.73
2022-10-18T06:08:35.072Z,9.26
2022-10-18T06:11:15.248Z,10.87
2022-10-18T06:13:43.663Z,12.87
2022-10-18T06:16:11.711Z,14.38
2022-10-18T06:18:38.665Z,15.62
2022-10-18T06:21:06.388Z,16.11
2022-10-18T06:23:33.278Z,17.15
2022-10-18T06:26:01.951Z,16.23
2022-10-18T06:28:29.776Z,15.91
2022-10-18T06:30:57.672Z,16.24
2022-10-18T06:33:24.845Z,17.07
2022-10-18T06:36:03.474Z,17.80
2022-10-18T06:38:30.474Z,18.27
2022-10-18T06:40:58.305Z,17.76
2022-10-18T06:43:25.640Z,18.42
2022-10-18T06:45:53.047Z,18.59
2022-10-18T06:50:54.514Z,18.66
2022-10-18T06:53:21.664Z,19.43
2022-10-18T06:55:48.506Z,19.60
2022-10-18T06:58:15.411Z,19.48
2022-10-18T07:00:42.581Z,19.47
2022-10-18T07:03:09.473Z,19.35
2022-10-18T07:05:36.324Z,18.85
2022-10-18T07:08:03.644Z,19.79
2022-10-18T07:10:30.484Z,18.97
2022-10-18T07:13:13.525Z,18.56
2022-10-18T07:15:44.473Z,17.36
2022-10-18T07:18:11.390Z,17.03
2022-10-18T07:20:38.248Z,17.23
2022-10-18T07:23:08.444Z,16.74
2022-10-18T07:25:35.832Z,18.00
2022-10-18T07:28:02.787Z,17.64
2022-10-18T07:30:29.937Z,18.04
2022-10-18T07:32:56.804Z,19.48
2022-10-18T07:35:23.731Z,20.10
2022-10-18T07:37:50.903Z,19.65
2022-10-18T07:40:17.826Z,19.47
2022-10-18T07:42:44.679Z,19.43
2022-10-18T07:45:12.646Z,19.11
2022-10-18T07:47:40.096Z,19.89
2022-10-18T07:50:07.610Z,19.77
2022-10-18T07:52:34.750Z,18.99
2022-10-18T07:55:01.609Z,19.03
2022-10-18T07:57:28.464Z,19.35
2022-10-18T07:59:57.065Z,18.79
2022-10-18T08:02:24.331Z,19.22
2022-10-18T08:04:51.454Z,18.79
2022-10-18T08:07:18.327Z,19.43
2022-10-18T08:09:45.228Z,19.17
2022-10-18T08:12:12.401Z,18.92
2022-10-18T08:14:39.294Z,19.26
2022-10-18T08:17:06.140Z,18.48
2022-10-18T08:19:33.246Z,18.07
2022-10-18T08:22:00.138Z,18.02
2022-10-18T08:24:26.983Z,18.80
2022-10-18T08:26:54.144Z,19.14
2022-10-18T08:29:24.941Z,18.62
2022-10-18T08:31:54.054Z,19.32
2022-10-18T08:34:20.918Z,19.66
2022-10-18T08:36:47.772Z,19.29
2022-10-18T08:39:18.057Z,20.06
2022-10-18T08:42:10.281Z,19.90
2022-10-18T08:44:44.852Z,19.48
2022-10-18T08:47:17.964Z,19.69
2022-10-18T08:50:07.177Z,20.19
2022-10-18T08:53:04.591Z,19.94
2022-10-18T08:55:54.982Z,20.13
2022-10-18T08:58:24.743Z,19.93
2022-10-18T09:01:07.023Z,19.72
2022-10-18T09:03:55.407Z,21.05
2022-10-18T09:06:36.040Z,21.84
2022-10-18T09:09:15.060Z,21.97
2022-10-18T09:12:21.474Z,22.02
2022-10-18T09:15:06.613Z,23.33
2022-10-18T09:18:02.321Z,22.04
2022-10-18T09:21:07.999Z,22.42
2022-10-18T09:24:14.494Z,23.71
2022-10-18T09:27:09.104Z,25.06
2022-10-18T09:30:28.390Z,24.47
2022-10-18T09:33:33.648Z,22.74
2022-10-18T09:36:23.010Z,19.53
2022-10-18T09:39:18.534Z,17.72
2022-10-18T09:42:16.750Z,17.85
2022-10-18T09:45:39.524Z,17.73
2022-10-18T09:48:30.394Z,17.65
2022-10-18T09:51:21.973Z,17.60
2022-10-18T09:54:25.895Z,17.56
2022-10-18T09:57:21.589Z,17.55
2022-10-18T10:00:21.051Z,17.43
2022-10-18T10:03:15.670Z,17.62
2022-10-18T10:06:17.345Z,17.38
2022-10-18T10:09:26.667Z,17.45
2022-10-18T10:12:26.608Z,17.30
2022-10-18T10:15:28.205Z,17.50
2022-10-18T10:18:21.180Z,17.63
2022-10-18T10:21:13.834Z,17.63
2022-10-18T10:24:00.465Z,17.55
2022-10-18T10:26:50.566Z,17.53
2022-10-18T10:29:47.378Z,17.49
2022-10-18T10:32:49.575Z,17.66
2022-10-18T10:35:54.287Z,17.80
2022-10-18T10:38:41.373Z,17.85
2022-10-18T10:41:28.092Z,17.88
2022-10-18T10:44:35.974Z,18.01
2022-10-18T10:47:32.706Z,17.91
2022-10-18T10:50:25.828Z,17.83
2022-10-18T10:53:36.375Z,18.08
2022-10-18T10:56:36.018Z,17.93
2022-10-18T10:59:24.244Z,18.10
2022-10-18T11:02:14.255Z,18.20
2022-10-18T11:05:23.788Z,18.26
2022-10-18T11:08:12.291Z,18.30
2022-10-18T11:11:05.250Z,18.25
2022-10-18T11:14:13.586Z,18.46
2022-10-18T11:16:56.925Z,18.30
2022-10-18T11:19:38.925Z,18.35
2022-10-18T11:22:12.023Z,18.56
2022-10-18T11:24:39.607Z,18.57
2022-10-18T11:27:13.471Z,18.55
2022-10-18T11:29:54.242Z,18.65
2022-10-18T11:32:30.313Z,18.57
2022-10-18T11:35:14.995Z,18.62
2022-10-18T11:37:53.676Z,18.69
2022-10-18T11:40:41.819Z,18.63
2022-10-18T11:43:30.106Z,18.52
2022-10-18T11:46:28.037Z,18.74
2022-10-18T11:49:08.811Z,18.74
2022-10-18T11:52:07.856Z,18.77
2022-10-18T11:54:56.871Z,18.99
2022-10-18T11:57:51.698Z,19.06
2022-10-18T12:00:29.046Z,19.03
2022-10-18T12:03:12.699Z,18.95
2022-10-18T12:05:41.716Z,19.04
2022-10-18T12:08:13.963Z,19.12
2022-10-18T12:11:03.915Z,19.11
2022-10-18T12:13:49.379Z,19.25
2022-10-18T12:16:18.267Z,19.24
2022-10-18T12:18:54.981Z,19.25
2022-10-18T12:21:25.752Z,19.28
2022-10-18T12:24:00.121Z,19.27
2022-10-18T12:26:28.377Z,19.30
2022-10-18T12:29:17.584Z,19.33
2022-10-18T12:31:51.220Z,19.31
2022-10-18T12:34:27.200Z,19.40
2022-10-18T12:37:09.344Z,19.35
2022-10-18T12:39:44.140Z,19.46
2022-10-18T12:42:30.051Z,19.40
2022-10-18T12:45:02.494Z,19.41
2022-10-18T12:47:30.433Z,19.42
2022-10-18T12:50:00.328Z,19.44
2022-10-18T12:52:29.849Z,19.71
2022-10-18T12:55:06.081Z,19.82
2022-10-18T12:57:51.595Z,19.84
2022-10-18T13:00:30.674Z,19.85
2022-10-18T13:03:12.722Z,19.75
2022-10-18T13:05:54.728Z,19.85
2022-10-18T13:08:28.394Z,19.84
2022-10-18T13:11:01.235Z,19.96
2022-10-18T13:13:51.736Z,20.05
2022-10-18T13:16:37.493Z,20.04
2022-10-18T13:19:18.643Z,19.92
2022-10-18T13:22:10.360Z,20.02
2022-10-18T13:24:39.535Z,20.02
2022-10-18T13:27:37.644Z,20.07
2022-10-18T13:30:40.359Z,19.96
2022-10-18T13:33:30.837Z,19.98
2022-10-18T13:36:01.935Z,19.93
2022-10-18T13:38:37.626Z,20.10
2022-10-18T13:41:07.612Z,20.05
2022-10-18T13:43:52.926Z,19.93
2022-10-18T13:46:33.092Z,19.91
2022-10-18T13:49:01.498Z,20.01
2022-10-18T13:51:35.368Z,19.90
2022-10-18T13:54:04.990Z,19.92
2022-10-18T13:56:53.525Z,19.81
2022-10-18T14:02:22.425Z,20.11
2022-10-18T14:05:34.531Z,19.95
2022-10-18T14:08:12.320Z,19.91
2022-10-18T14:11:03.002Z,19.90
2022-10-18T14:13:43.970Z,19.93
2022-10-18T14:16:27.071Z,19.80
2022-10-18T14:19:00.954Z,19.96
2022-10-18T14:21:34.454Z,20.37
2022-10-18T14:24:01.435Z,20.40
2022-10-18T14:26:29.443Z,20.44
2022-10-18T14:29:06.947Z,20.55
2022-10-18T14:31:34.800Z,20.43
2022-10-18T14:34:01.736Z,20.12
2022-10-18T14:36:41.060Z,19.89
2022-10-18T14:39:18.696Z,19.69
2022-10-18T14:42:03.619Z,19.60
2022-10-18T14:44:32.171Z,19.75
2022-10-18T14:47:01.426Z,19.62
2022-10-18T14:49:28.494Z,19.50
2022-10-18T14:51:57.906Z,19.47
2022-10-18T14:54:31.838Z,19.40
2022-10-18T14:57:00.802Z,19.36
2022-10-18T14:59:30.504Z,19.20
2022-10-18T15:02:01.863Z,19.04
2022-10-18T15:04:35.276Z,19.03
2022-10-18T15:07:04.190Z,18.97
2022-10-18T15:09:33.845Z,18.83
2022-10-18T15:12:02.571Z,18.70
2022-10-18T15:14:30.121Z,18.54
2022-10-18T15:17:03.853Z,18.41
2022-10-18T15:19:42.225Z,18.35
2022-10-18T15:22:30.801Z,18.17
2022-10-18T15:25:18.561Z,18.03
2022-10-18T15:27:48.172Z,17.82
2022-10-18T15:30:24.691Z,17.67
2022-10-18T15:32:55.070Z,17.53
2022-10-18T15:35:32.082Z,17.45
2022-10-18T15:38:03.547Z,17.39
2022-10-18T15:40:33.570Z,17.23
2022-10-18T15:43:03.754Z,17.04
2022-10-18T15:45:33.833Z,16.85
2022-10-18T15:48:06.998Z,16.75
2022-10-18T15:50:41.466Z,16.58
2022-10-18T15:53:42.744Z,16.46
2022-10-18T15:56:28.861Z,16.19
2022-10-18T15:58:57.382Z,16.03
2022-10-18T16:01:33.425Z,15.76
2022-10-18T16:04:01.327Z,15.54
2022-10-18T16:06:28.514Z,15.45
2022-10-18T16:08:55.594Z,15.39
2022-10-18T16:11:26.213Z,15.24
2022-10-18T16:13:56.385Z,15.13
2022-10-18T16:16:28.115Z,15.04
2022-10-18T16:18:55.451Z,14.92
2022-10-18T16:21:25.533Z,14.81
2022-10-18T16:23:52.909Z,14.65
2022-10-18T16:26:20.526Z,14.57
2022-10-18T16:28:48.117Z,14.56
2022-10-18T16:31:20.611Z,14.48
2022-10-18T16:33:48.590Z,14.36
2022-10-18T16:36:21.303Z,14.21
2022-10-18T16:38:49.515Z,14.11
2022-10-18T16:43:45.531Z,13.94
2022-10-18T16:46:17.795Z,13.84
2022-10-18T16:48:45.938Z,13.72
2022-10-18T16:51:13.282Z,13.58
2022-10-18T16:53:40.148Z,13.64
2022-10-18T16:56:13.942Z,13.56
2022-10-18T16:58:41.357Z,13.51
2022-10-18T17:01:12.359Z,13.46
2022-10-18T17:03:39.362Z,13.41
2022-10-18T17:06:06.302Z,13.27
2022-10-18T17:08:33.490Z,13.16
2022-10-18T17:11:01.710Z,13.06
2022-10-18T17:13:28.609Z,13.06
2022-10-18T17:15:55.795Z,12.96
2022-10-18T17:18:26.463Z,12.89
2022-10-18T17:20:53.582Z,12.79
2022-10-18T17:23:20.687Z,12.83
2022-10-18T17:25:59.146Z,12.75
2022-10-18T17:28:34.251Z,12.79
2022-10-18T17:31:01.167Z,12.80
2022-10-18T17:33:28.015Z,12.72
2022-10-18T17:35:55.146Z,12.66
2022-10-18T17:38:22.018Z,12.61
2022-10-18T17:40:48.901Z,12.54
2022-10-18T17:43:15.997Z,12.47
2022-10-18T17:45:48.116Z,12.40
2022-10-18T17:48:17.483Z,12.34
2022-10-18T17:50:44.417Z,12.35
2022-10-18T17:53:12.886Z,12.26
2022-10-18T17:55:40.342Z,12.23
2022-10-18T17:58:07.204Z,12.11
2022-10-18T18:00:34.336Z,12.03
2022-10-18T18:03:01.982Z,11.99
2022-10-18T18:05:33.534Z,11.92
2022-10-18T18:08:03.807Z,11.83
2022-10-18T18:10:34.977Z,11.82
2022-10-18T18:13:02.524Z,11.79
2022-10-18T18:15:29.422Z,11.77
2022-10-18T18:17:57.849Z,11.75
2022-10-18T18:20:25.986Z,11.68
2022-10-18T18:22:53.039Z,11.51
2022-10-18T18:25:20.253Z,11.46
2022-10-18T18:27:47.165Z,11.58
2022-10-18T18:30:15.496Z,11.52
2022-10-18T18:32:42.685Z,11.56
2022-10-18T18:35:10.219Z,11.49
2022-10-18T18:37:37.214Z,11.45
2022-10-18T18:40:04.581Z,11.37
2022-10-18T18:42:32.363Z,11.36
2022-10-18T18:44:59.509Z,11.27
2022-10-18T18:47:27.651Z,11.29
2022-10-18T18:49:54.489Z,11.24
2022-10-18T18:52:21.461Z,11.28
2022-10-18T18:54:48.574Z,11.27
2022-10-18T18:57:16.912Z,11.17
2022-10-18T18:59:43.797Z,11.12
2022-10-18T19:02:10.927Z,11.08
2022-10-18T19:04:38.054Z,11.08
2022-10-18T19:07:04.903Z,11.06
2022-10-18T19:09:32.750Z,11.01
2022-10-18T19:11:59.589Z,10.96
2022-10-18T19:14:26.446Z,10.83
2022-10-18T19:16:55.115Z,10.81
2022-10-18T19:19:23.700Z,10.70
2022-10-18T19:21:52.967Z,10.69
2022-10-18T19:24:21.764Z,10.70
2022-10-18T19:26:59.534Z,10.60
2022-10-18T19:29:32.164Z,10.69
2022-10-18T19:32:01.195Z,10.64
2022-10-18T19:34:48.070Z,10.56
2022-10-18T19:37:15.620Z,10.41
2022-10-18T19:39:42.898Z,10.38
2022-10-18T19:42:17.422Z,10.40
2022-10-18T19:44:47.685Z,10.43
2022-10-18T19:47:14.675Z,10.40
2022-10-18T19:49:44.601Z,10.36
2022-10-18T19:52:12.446Z,10.37
2022-10-18T19:54:39.656Z,10.39
2022-10-18T19:57:06.956Z,10.38
2022-10-18T19:59:35.902Z,10.35
2022-10-18T20:02:04.914Z,10.36
2022-10-18T20:04:34.757Z,10.27
2022-10-18T20:07:02.801Z,10.01
2022-10-18T20:09:29.828Z,10.06
2022-10-18T20:11:56.958Z,10.08
2022-10-18T20:14:23.890Z,10.12
2022-10-18T20:16:50.727Z,10.15
2022-10-18T20:19:17.813Z,10.17
2022-10-18T20:21:44.673Z,10.14
2022-10-18T20:24:11.870Z,10.07
2022-10-18T20:26:39.638Z,10.05
2022-10-18T20:29:07.742Z,10.02
2022-10-18T20:31:37.142Z,10.06
2022-10-18T20:34:09.977Z,10.07
2022-10-18T20:36:36.942Z,10.08
2022-10-18T20:39:04.938Z,10.06
2022-10-18T20:41:34.251Z,10.03
2022-10-18T20:44:04.546Z,9.96
2022-10-18T20:46:34.378Z,9.88
2022-10-18T20:49:01.524Z,9.81
2022-10-18T20:51:28.431Z,9.75
2022-10-18T20:53:55.541Z,9.81
2022-10-18T20:56:25.246Z,9.84
2022-10-18T20:58:54.885Z,9.83
2022-10-18T21:01:23.157Z,9.83
2022-10-18T21:03:51.851Z,9.82
2022-10-18T21:06:21.422Z,9.74
2022-10-18T21:09:01.742Z,9.68
2022-10-18T21:11:29.923Z,9.66
2022-10-18T21:14:02.764Z,9.67
2022-10-18T21:16:34.357Z,9.59
2022-10-18T21:19:22.687Z,9.62
2022-10-18T21:21:56.393Z,9.58
2022-10-18T21:24:24.750Z,9.57
2022-10-18T21:26:51.644Z,9.48
2022-10-18T21:29:22.783Z,9.54
2022-10-18T21:31:55.225Z,9.54
2022-10-18T21:34:22.280Z,9.52
2022-10-18T21:36:52.073Z,9.53
2022-10-18T21:41:51.128Z,9.44
2022-10-18T21:44:21.187Z,9.43
2022-10-18T21:46:51.166Z,9.37
2022-10-18T21:49:23.385Z,9.26
2022-10-18T21:51:50.690Z,9.24
2022-10-18T21:54:20.453Z,9.29
2022-10-18T21:56:51.147Z,9.38
2022-10-18T21:59:18.283Z,9.43
2022-10-18T22:01:48.015Z,9.36
2022-10-18T22:04:22.684Z,9.45
2022-10-18T22:06:50.007Z,9.43
2022-10-18T22:09:21.307Z,9.41
2022-10-18T22:11:52.919Z,9.38
2022-10-18T22:14:23.418Z,9.34
2022-10-18T22:16:50.795Z,9.28
2022-10-18T22:19:20.827Z,9.38
2022-10-18T22:21:50.990Z,9.43
2022-10-18T22:24:20.722Z,9.46
2022-10-18T22:26:51.176Z,9.57
2022-10-18T22:29:21.597Z,9.63
2022-10-18T22:31:52.739Z,9.79
2022-10-18T22:34:27.560Z,9.83
2022-10-18T22:36:54.793Z,9.90
2022-10-18T22:39:21.861Z,9.97
2022-10-18T22:41:55.872Z,9.96
2022-10-18T22:44:23.482Z,10.03
2022-10-18T22:46:50.346Z,10.03
2022-10-18T22:49:20.298Z,9.95
2022-10-18T22:51:50.255Z,9.82
2022-10-18T22:54:19.883Z,9.75
2022-10-18T22:56:50.183Z,9.71
2022-10-18T22:59:20.320Z,9.75
2022-10-18T23:01:47.195Z,9.84
2022-10-18T23:04:14.047Z,9.95
2022-10-18T23:06:41.249Z,10.08
2022-10-18T23:09:10.670Z,10.20
2022-10-18T23:11:37.914Z,10.19
2022-10-18T23:14:06.159Z,10.29
2022-10-18T23:16:33.022Z,10.34
2022-10-18T23:18:59.890Z,10.34
2022-10-18T23:21:28.232Z,10.37
2022-10-18T23:23:55.683Z,10.42
2022-10-18T23:26:24.970Z,10.46
2022-10-18T23:28:53.247Z,10.48
2022-10-18T23:31:25.281Z,10.38
2022-10-18T23:33:54.152Z,10.36
2022-10-18T23:36:22.275Z,10.31
2022-10-18T23:38:49.440Z,10.36
2022-10-18T23:41:17.254Z,10.40
2022-10-18T23:43:44.701Z,10.39
2022-10-18T23:46:11.851Z,10.37
2022-10-18T23:48:39.175Z,10.35
2022-10-18T23:51:07.597Z,10.28
2022-10-18T23:53:34.628Z,10.22
2022-10-18T23:56:10.558Z,10.21
2022-10-18T23:58:37.857Z,10.18
